Portada
METAR-TAF:

METAR-TAF

Aeropuertos :

Nadi, Fiyi

Aeropuerto Internacional de Nadi

latitud: 17-45S, longitud: 177-27E, altitud: 13 m

Observación

El informe se hizo hace 39 minutos, a las 23:00 UTC
Viento 10 kt del oeste, variando entre oeste-suroeste y noroeste
Temperatura 29°C
Humedad 55%
Presión 1011 hPa
Visibilidad 10 km o más
Nubes dispersas a una altura de 3000 ft

METAR: NFFN 202300Z 28010KT 250V310 9999 SCT030 29/19 Q1011 NOSIG

Hora: 11:39 (23:39 UTC)

Pronóstico

El informe se hizo hace 6 horas y 38 minutos, a las 17:01 UTC
Pronóstico válido del 20 a las 18 UTC al 21 a las 18 UTC
Viento 8 kt del este-sureste
Visibilidad 10 km o más
Nubes dispersas a una altura de 2800 ft
Cielo nuboso a una altura de 5000 ft
Temporalmente
del 21 a las 03 UTC al 21 a las 06 UTC
Visibilidad: 7000 m
Cielo nuboso a una altura de 1600 ft
chaparrones de lluvia

TAF: NFFN 201701Z 2018/2118 11008KT 9999 SCT028 BKN050 PR0B30 TEMPO 2103/2106 7000 SHRA BKN016

Observaciones y pronósticos meteorológicos de más de 4000 aeropuertos (mensajes METAR y TAF).

Los puntos amarillos y rojos representan las estaciones disponibles.

Ponga el ratón en el punto deseado para ver el nombre de la estación.

Haga clic para ver las observaciones y los pronósticos meteorológicos.

Para cambiar el mapa : haga clic en los botones verdes con una cruz de color negro para hacer un zoom, en el botón verde con un guión para alejar o en las flechas verdes para mapas adyacentes.


METAR-TAF: